createdAt,value
2018-11-04T00:04:46.762Z,5.80
2018-11-04T00:07:19.905Z,6.63
2018-11-04T00:09:52.680Z,5.53
2018-11-04T00:12:25.720Z,7.13
2018-11-04T00:20:15.177Z,10.93
2018-11-04T00:22:48.278Z,9.40
2018-11-04T00:25:21.001Z,7.93
2018-11-04T00:27:54.045Z,8.20
2018-11-04T00:30:26.811Z,7.07
2018-11-04T00:32:59.731Z,6.77
2018-11-04T00:35:32.411Z,7.47
2018-11-04T00:38:05.420Z,5.57
2018-11-04T00:40:38.112Z,6.00
2018-11-04T00:43:10.873Z,5.03
2018-11-04T00:45:43.581Z,5.27
2018-11-04T00:48:16.484Z,5.43
2018-11-04T00:50:49.251Z,5.03
2018-11-04T00:53:22.448Z,4.50
2018-11-04T00:56:01.785Z,5.87
2018-11-04T00:58:34.737Z,5.40
2018-11-04T01:01:08.065Z,5.53
2018-11-04T01:03:41.166Z,4.73
2018-11-04T01:06:14.000Z,5.07
2018-11-04T01:08:47.051Z,4.87
2018-11-04T01:11:19.857Z,5.30
2018-11-04T01:13:52.776Z,4.73
2018-11-04T01:16:25.541Z,5.50
2018-11-04T01:18:58.479Z,4.97
2018-11-04T01:21:31.345Z,4.93
2018-11-04T01:24:07.622Z,5.80
2018-11-04T01:26:40.604Z,7.33
2018-11-04T01:29:13.729Z,8.63
2018-11-04T01:31:46.573Z,7.87
2018-11-04T01:34:19.347Z,9.40
2018-11-04T01:36:52.275Z,7.93
2018-11-04T01:39:25.160Z,8.93
2018-11-04T01:41:58.130Z,8.40
2018-11-04T01:44:31.103Z,8.77
2018-11-04T01:47:03.872Z,9.63
2018-11-04T01:49:36.653Z,11.50
2018-11-04T01:52:09.590Z,8.70
2018-11-04T01:54:42.409Z,9.40
2018-11-04T01:57:15.427Z,8.87
2018-11-04T01:59:48.608Z,7.83
2018-11-04T02:02:21.450Z,7.63
2018-11-04T02:04:55.340Z,7.90
2018-11-04T02:07:28.171Z,7.53
2018-11-04T02:10:01.089Z,7.27
2018-11-04T02:12:33.871Z,8.23
2018-11-04T02:15:06.975Z,8.07
2018-11-04T02:17:39.910Z,8.90
2018-11-04T02:20:14.527Z,9.23
2018-11-04T02:22:47.409Z,9.23
2018-11-04T02:25:20.358Z,10.80
2018-11-04T02:27:53.198Z,13.47
2018-11-04T02:30:26.449Z,12.93
2018-11-04T02:32:59.578Z,13.13
2018-11-04T02:35:32.637Z,12.33
2018-11-04T02:38:05.397Z,13.03
2018-11-04T02:43:35.724Z,9.10
2018-11-04T02:46:09.418Z,9.47
2018-11-04T02:48:42.905Z,9.90
2018-11-04T02:51:16.270Z,10.50
2018-11-04T02:53:49.852Z,10.57
2018-11-04T02:56:23.623Z,9.67
2018-11-04T02:58:57.097Z,9.57
2018-11-04T03:01:30.635Z,11.07
2018-11-04T03:04:03.899Z,9.87
2018-11-04T03:06:37.260Z,9.73
2018-11-04T03:09:12.894Z,8.93
2018-11-04T03:11:46.940Z,9.20
2018-11-04T03:14:20.349Z,8.73
2018-11-04T03:16:53.919Z,8.43
2018-11-04T03:19:27.635Z,8.60
2018-11-04T03:22:01.361Z,9.30
2018-11-04T03:24:34.798Z,9.03
2018-11-04T03:27:08.273Z,9.80
2018-11-04T03:29:41.576Z,9.23
2018-11-04T03:32:14.956Z,11.07
2018-11-04T03:34:48.459Z,10.40
2018-11-04T03:37:22.429Z,9.97
2018-11-04T03:39:55.905Z,10.20
2018-11-04T03:42:31.219Z,9.80
2018-11-04T03:45:04.316Z,9.73
2018-11-04T03:47:37.922Z,10.37
2018-11-04T03:50:13.509Z,10.23
2018-11-04T03:52:50.805Z,11.03
2018-11-04T03:55:27.697Z,10.83
2018-11-04T03:58:14.173Z,11.33
2018-11-04T04:00:47.610Z,10.80
2018-11-04T04:03:20.817Z,12.57
2018-11-04T04:05:54.230Z,11.20
2018-11-04T04:08:27.531Z,10.63
2018-11-04T04:11:00.877Z,11.63
2018-11-04T04:13:40.328Z,10.73
2018-11-04T04:16:14.588Z,12.23
2018-11-04T04:18:48.153Z,12.47
2018-11-04T04:21:21.535Z,12.63
2018-11-04T04:23:55.282Z,10.67
2018-11-04T04:26:28.016Z,11.80
2018-11-04T04:29:01.213Z,12.17
2018-11-04T04:31:34.686Z,12.07
2018-11-04T04:34:08.779Z,11.07
2018-11-04T04:36:41.590Z,11.40
2018-11-04T04:39:14.795Z,11.27
2018-11-04T04:41:48.056Z,11.63
2018-11-04T04:44:21.452Z,11.77
2018-11-04T04:46:54.712Z,12.93
2018-11-04T04:49:28.274Z,11.57
2018-11-04T04:52:02.312Z,10.83
2018-11-04T04:54:36.073Z,11.63
2018-11-04T04:57:09.626Z,11.77
2018-11-04T04:59:42.961Z,11.17
2018-11-04T05:02:16.134Z,10.60
2018-11-04T05:04:49.428Z,11.27
2018-11-04T05:07:22.424Z,11.97
2018-11-04T05:09:55.394Z,11.80
2018-11-04T05:12:29.308Z,11.80
2018-11-04T05:15:02.557Z,11.57
2018-11-04T05:17:41.751Z,11.33
2018-11-04T05:20:15.039Z,12.17
2018-11-04T05:22:48.303Z,10.57
2018-11-04T05:25:22.152Z,11.07
2018-11-04T05:28:25.798Z,12.67
2018-11-04T05:30:59.369Z,12.20
2018-11-04T05:36:55.068Z,11.47
2018-11-04T05:39:30.165Z,11.00
2018-11-04T05:42:04.188Z,10.60
2018-11-04T05:44:39.441Z,11.00
2018-11-04T05:47:12.007Z,11.47
2018-11-04T05:49:44.999Z,10.93
2018-11-04T05:52:18.066Z,11.17
2018-11-04T05:54:51.055Z,11.10
2018-11-04T05:57:57.632Z,11.67
2018-11-04T06:00:31.053Z,11.47
2018-11-04T06:03:04.194Z,11.33
2018-11-04T06:05:37.516Z,12.87
2018-11-04T06:08:10.501Z,13.27
2018-11-04T06:10:43.800Z,12.87
2018-11-04T06:13:39.497Z,12.67
2018-11-04T06:16:33.935Z,13.73
2018-11-04T06:19:29.384Z,11.83
2018-11-04T06:22:25.168Z,12.60
2018-11-04T06:25:21.088Z,11.10
2018-11-04T06:27:55.319Z,10.03
2018-11-04T06:30:28.366Z,10.27
2018-11-04T06:33:01.398Z,12.30
2018-11-04T06:35:34.562Z,10.90
2018-11-04T06:38:07.608Z,11.00
2018-11-04T06:40:40.834Z,13.33
2018-11-04T06:43:13.999Z,12.77
2018-11-04T06:45:47.521Z,12.93
2018-11-04T06:48:20.966Z,13.13
2018-11-04T06:50:54.241Z,12.90
2018-11-04T06:53:27.262Z,12.00
2018-11-04T06:56:00.804Z,11.47
2018-11-04T06:58:34.248Z,11.50
2018-11-04T07:01:07.479Z,11.00
2018-11-04T07:03:40.933Z,11.17
2018-11-04T07:06:14.078Z,11.63
2018-11-04T07:08:46.968Z,13.33
2018-11-04T07:11:20.337Z,14.20
2018-11-04T07:13:53.306Z,15.03
2018-11-04T07:16:26.789Z,15.53
2018-11-04T07:19:00.296Z,11.70
2018-11-04T07:21:33.684Z,12.53
2018-11-04T07:24:07.297Z,11.07
2018-11-04T07:26:40.446Z,10.63
2018-11-04T07:29:13.730Z,11.23
2018-11-04T07:31:47.082Z,11.33
2018-11-04T07:34:20.725Z,11.47
2018-11-04T07:36:53.908Z,11.10
2018-11-04T07:39:26.954Z,11.67
2018-11-04T07:42:00.396Z,12.57
2018-11-04T07:44:33.307Z,12.90
2018-11-04T07:47:06.749Z,12.07
2018-11-04T07:49:40.151Z,11.93
2018-11-04T07:52:13.398Z,12.40
2018-11-04T07:54:46.494Z,13.07
2018-11-04T08:00:46.193Z,12.63
2018-11-04T08:03:19.246Z,12.93
2018-11-04T08:05:54.461Z,12.77
2018-11-04T08:08:28.405Z,12.67
2018-11-04T08:11:04.517Z,12.37
2018-11-04T08:13:40.027Z,13.73
2018-11-04T08:16:13.145Z,14.30
2018-11-04T08:18:46.120Z,13.13
2018-11-04T08:21:18.919Z,15.17
2018-11-04T08:23:51.670Z,12.77
2018-11-04T08:26:25.310Z,14.03
2018-11-04T08:28:58.376Z,16.00
2018-11-04T08:34:52.655Z,17.90
2018-11-04T08:37:25.600Z,17.37
2018-11-04T08:39:58.723Z,14.73
2018-11-04T08:42:31.706Z,16.03
2018-11-04T08:45:04.283Z,14.70
2018-11-04T08:47:36.905Z,15.43
2018-11-04T08:50:11.691Z,16.00
2018-11-04T08:52:45.100Z,16.23
2018-11-04T08:55:17.830Z,15.70
2018-11-04T08:57:50.385Z,15.40
2018-11-04T09:03:44.881Z,15.90
2018-11-04T09:06:18.401Z,16.47
2018-11-04T09:08:51.865Z,16.30
2018-11-04T09:11:25.052Z,15.57
2018-11-04T09:13:59.057Z,14.17
2018-11-04T09:16:31.970Z,12.80
2018-11-04T09:19:05.068Z,12.73
2018-11-04T09:21:38.411Z,14.03
2018-11-04T09:24:11.794Z,16.50
2018-11-04T09:26:44.835Z,14.70
2018-11-04T09:29:18.537Z,15.30
2018-11-04T09:35:12.838Z,15.73
2018-11-04T09:41:07.428Z,14.27
2018-11-04T09:43:40.257Z,14.70
2018-11-04T09:46:13.404Z,12.97
2018-11-04T09:48:46.507Z,13.93
2018-11-04T09:51:19.393Z,11.77
2018-11-04T09:53:52.339Z,11.13
2018-11-04T09:56:25.682Z,11.77
2018-11-04T09:58:58.679Z,11.77
2018-11-04T10:01:32.086Z,12.07
2018-11-04T10:04:05.136Z,11.40
2018-11-04T10:06:38.553Z,10.77
2018-11-04T10:09:12.919Z,10.00
2018-11-04T10:11:45.976Z,9.30
2018-11-04T10:14:19.024Z,9.87
2018-11-04T10:16:52.229Z,9.53
2018-11-04T10:19:25.235Z,10.13
2018-11-04T10:21:58.317Z,9.90
2018-11-04T10:24:31.487Z,9.07
2018-11-04T10:27:04.355Z,10.33
2018-11-04T10:29:37.353Z,9.37
2018-11-04T10:32:10.703Z,9.53
2018-11-04T10:34:43.449Z,10.13
2018-11-04T10:37:17.433Z,10.07
2018-11-04T10:39:50.623Z,9.73
2018-11-04T10:42:23.532Z,10.57
2018-11-04T10:45:27.779Z,10.77
2018-11-04T10:48:01.045Z,9.97
2018-11-04T10:50:34.152Z,10.27
2018-11-04T10:53:07.402Z,10.77
2018-11-04T10:55:40.597Z,12.13
2018-11-04T10:58:13.740Z,12.17
2018-11-04T11:00:51.151Z,12.03
2018-11-04T11:03:24.064Z,13.23
2018-11-04T11:05:57.167Z,12.43
2018-11-04T11:08:30.238Z,13.67
2018-11-04T11:11:02.981Z,13.40
2018-11-04T11:13:36.048Z,13.33
2018-11-04T11:16:08.912Z,13.27
2018-11-04T11:18:42.089Z,12.60
2018-11-04T11:21:15.039Z,13.93
2018-11-04T11:23:48.316Z,14.37
2018-11-04T11:26:21.154Z,13.53
2018-11-04T11:28:54.304Z,13.47
2018-11-04T11:31:27.584Z,13.60
2018-11-04T11:34:00.718Z,12.93
2018-11-04T11:36:33.540Z,13.63
2018-11-04T11:39:07.672Z,12.97
2018-11-04T11:41:40.862Z,12.47
2018-11-04T11:44:14.151Z,12.50
2018-11-04T11:46:46.977Z,12.60
2018-11-04T11:49:20.094Z,13.17
2018-11-04T11:51:53.298Z,11.63
2018-11-04T11:54:26.595Z,12.50
2018-11-04T11:56:59.784Z,12.13
2018-11-04T11:59:32.907Z,28.87
2018-11-04T12:02:05.773Z,15.07
2018-11-04T12:04:38.886Z,12.80
2018-11-04T12:07:12.064Z,12.33
2018-11-04T12:09:45.395Z,11.37
2018-11-04T12:12:18.537Z,12.57
2018-11-04T12:14:51.595Z,12.60
2018-11-04T12:17:24.484Z,12.77
2018-11-04T12:19:57.798Z,13.20
2018-11-04T12:23:03.827Z,11.90
2018-11-04T12:25:38.849Z,19.77
2018-11-04T12:28:13.183Z,14.03
2018-11-04T12:30:46.649Z,14.80
2018-11-04T12:33:19.727Z,13.17
2018-11-04T12:35:53.193Z,14.30
2018-11-04T12:38:26.072Z,13.40
2018-11-04T12:40:59.250Z,13.10
2018-11-04T12:46:55.148Z,14.17
2018-11-04T12:49:28.213Z,16.23
2018-11-04T12:52:01.077Z,17.23
2018-11-04T12:54:34.368Z,15.20
2018-11-04T12:57:08.415Z,15.87
2018-11-04T12:59:41.147Z,14.73
2018-11-04T13:02:14.461Z,14.60
2018-11-04T13:04:47.590Z,13.43
2018-11-04T13:07:20.843Z,12.03
2018-11-04T13:09:53.722Z,14.33
2018-11-04T13:12:27.099Z,14.63
2018-11-04T13:15:00.043Z,15.53
2018-11-04T13:17:33.303Z,13.83
2018-11-04T13:20:06.947Z,12.97
2018-11-04T13:22:40.433Z,13.57
2018-11-04T13:25:13.912Z,12.97
2018-11-04T13:27:49.753Z,10.43
2018-11-04T13:30:22.449Z,11.17
2018-11-04T13:32:55.005Z,11.37
2018-11-04T13:35:27.533Z,10.80
2018-11-04T13:38:01.533Z,11.07
2018-11-04T13:40:34.807Z,11.57
2018-11-04T13:43:07.718Z,10.77
2018-11-04T13:45:40.786Z,9.87
2018-11-04T13:48:13.729Z,11.77
2018-11-04T13:50:46.796Z,11.83
2018-11-04T13:53:19.552Z,11.10
2018-11-04T13:55:52.338Z,10.70
2018-11-04T13:58:27.026Z,11.37
2018-11-04T14:01:00.009Z,10.10
2018-11-04T14:03:35.495Z,9.90
2018-11-04T14:06:08.686Z,8.90
2018-11-04T14:08:42.112Z,9.20
2018-11-04T14:14:11.807Z,10.20
2018-11-04T14:20:13.789Z,8.30
2018-11-04T14:22:46.853Z,8.87
2018-11-04T14:25:19.436Z,8.37
2018-11-04T14:27:53.368Z,7.63
2018-11-04T14:30:26.781Z,9.40
2018-11-04T14:32:59.968Z,7.30
2018-11-04T14:38:53.764Z,7.07
2018-11-04T14:41:27.384Z,7.03
2018-11-04T14:44:01.830Z,7.67
2018-11-04T14:46:34.816Z,6.73
2018-11-04T14:49:07.972Z,6.20
2018-11-04T14:51:40.617Z,5.30
2018-11-04T14:54:13.857Z,5.53
2018-11-04T14:56:47.200Z,6.37
2018-11-04T14:59:20.399Z,5.87
2018-11-04T15:01:53.861Z,6.77
2018-11-04T15:04:27.782Z,5.67
2018-11-04T15:07:01.141Z,5.83
2018-11-04T15:09:34.051Z,6.80
2018-11-04T15:12:06.948Z,7.43
2018-11-04T15:14:40.069Z,6.60
2018-11-04T15:17:13.105Z,6.00
2018-11-04T15:19:46.386Z,5.97
2018-11-04T15:22:19.611Z,6.30
2018-11-04T15:24:53.145Z,5.27
2018-11-04T15:27:26.361Z,5.50
2018-11-04T15:30:00.133Z,6.23
2018-11-04T15:32:32.757Z,5.50
2018-11-04T15:35:06.315Z,6.03
2018-11-04T15:37:39.760Z,5.87
2018-11-04T15:40:14.960Z,6.40
2018-11-04T15:42:48.027Z,5.20
2018-11-04T15:45:21.446Z,5.77
2018-11-04T15:47:54.846Z,6.20
2018-11-04T15:50:28.083Z,6.23
2018-11-04T15:53:01.296Z,5.40
2018-11-04T15:55:35.173Z,6.37
2018-11-04T15:58:09.178Z,6.05
2018-11-04T16:00:42.551Z,6.20
2018-11-04T16:03:15.903Z,5.93
2018-11-04T16:05:50.168Z,5.97
2018-11-04T16:08:23.026Z,6.47
2018-11-04T16:10:56.114Z,7.57
2018-11-04T16:13:28.794Z,6.73
2018-11-04T16:16:02.228Z,6.15
2018-11-04T16:18:35.415Z,6.20
2018-11-04T16:21:11.074Z,6.08
2018-11-04T16:23:53.600Z,5.40
2018-11-04T16:26:27.772Z,6.42
2018-11-04T16:29:00.945Z,5.72
2018-11-04T16:31:34.142Z,7.17
2018-11-04T16:34:07.373Z,6.53
2018-11-04T16:36:41.049Z,8.48
2018-11-04T16:39:15.645Z,8.40
2018-11-04T16:41:50.931Z,6.62
2018-11-04T16:44:24.127Z,5.83
2018-11-04T16:46:57.519Z,6.67
2018-11-04T16:49:30.722Z,6.35
2018-11-04T16:55:35.859Z,6.93
2018-11-04T16:58:09.393Z,7.07
2018-11-04T17:00:43.347Z,5.70
2018-11-04T17:03:17.005Z,6.30
2018-11-04T17:05:51.197Z,6.35
2018-11-04T17:08:24.816Z,6.33
2018-11-04T17:10:58.625Z,5.60
2018-11-04T17:13:32.428Z,5.40
2018-11-04T17:16:06.920Z,6.67
2018-11-04T17:18:40.604Z,5.83
2018-11-04T17:21:14.654Z,5.95
2018-11-04T17:23:48.299Z,6.87
2018-11-04T17:26:22.214Z,6.83
2018-11-04T17:28:55.664Z,7.80
2018-11-04T17:31:29.604Z,6.63
2018-11-04T17:34:03.975Z,6.17
2018-11-04T17:36:38.365Z,6.20
2018-11-04T17:39:14.060Z,7.27
2018-11-04T17:41:47.891Z,5.70
2018-11-04T17:44:22.070Z,5.60
2018-11-04T17:46:56.045Z,8.20
2018-11-04T17:49:29.838Z,7.47
2018-11-04T17:52:03.851Z,7.65
2018-11-04T17:54:37.297Z,19.10
2018-11-04T17:57:12.498Z,24.47
2018-11-04T17:59:48.127Z,10.73
2018-11-04T18:02:21.982Z,6.60
2018-11-04T18:04:56.029Z,6.10
2018-11-04T18:07:29.748Z,8.77
2018-11-04T18:10:03.810Z,8.03
2018-11-04T18:12:37.489Z,6.67
2018-11-04T18:15:11.966Z,6.55
2018-11-04T18:17:45.907Z,6.57
2018-11-04T18:20:19.349Z,6.00
2018-11-04T18:22:53.515Z,8.53
2018-11-04T18:28:58.220Z,9.93
2018-11-04T18:31:32.324Z,14.73
2018-11-04T18:34:06.233Z,12.30
2018-11-04T18:36:39.843Z,14.20
2018-11-04T18:39:13.715Z,13.27
2018-11-04T18:41:47.108Z,11.77
2018-11-04T18:44:20.788Z,10.10
2018-11-04T18:50:25.428Z,8.30
2018-11-04T18:52:58.451Z,10.23
2018-11-04T18:58:52.792Z,8.40
2018-11-04T19:01:26.123Z,9.53
2018-11-04T19:03:59.038Z,9.28
2018-11-04T19:06:32.386Z,7.30
2018-11-04T19:09:06.333Z,8.25
2018-11-04T19:11:39.481Z,7.17
2018-11-04T19:17:33.946Z,6.23
2018-11-04T19:20:07.003Z,9.07
2018-11-04T19:22:40.454Z,9.47
2018-11-04T19:25:15.253Z,12.13
2018-11-04T19:27:48.517Z,12.17
2018-11-04T19:30:21.509Z,14.40
2018-11-04T19:32:54.891Z,16.27
2018-11-04T19:35:28.110Z,15.33
2018-11-04T19:38:04.026Z,12.83
2018-11-04T19:40:39.635Z,16.80
2018-11-04T19:43:13.232Z,14.43
2018-11-04T19:45:46.582Z,13.37
2018-11-04T19:48:21.228Z,15.67
2018-11-04T19:50:55.599Z,15.53
2018-11-04T19:53:28.872Z,14.70
2018-11-04T19:56:02.179Z,14.40
2018-11-04T19:58:36.129Z,11.43
2018-11-04T20:01:09.864Z,13.23
2018-11-04T20:03:43.306Z,10.50
2018-11-04T20:06:16.409Z,12.83
2018-11-04T20:08:54.068Z,9.87
2018-11-04T20:11:27.153Z,10.77
2018-11-04T20:14:05.167Z,10.00
2018-11-04T20:16:38.006Z,10.20
2018-11-04T20:19:17.856Z,12.87
2018-11-04T20:21:51.392Z,12.93
2018-11-04T20:24:28.703Z,10.80
2018-11-04T20:27:02.445Z,11.00
2018-11-04T20:29:36.970Z,10.93
2018-11-04T20:32:14.436Z,12.77
2018-11-04T20:34:47.815Z,12.10
2018-11-04T20:37:23.841Z,11.73
2018-11-04T20:40:05.751Z,12.87
2018-11-04T20:42:50.099Z,11.63
2018-11-04T20:48:56.161Z,11.50
2018-11-04T20:51:44.912Z,12.60
2018-11-04T20:54:28.909Z,10.20
2018-11-04T20:57:13.895Z,13.70
2018-11-04T21:00:00.077Z,11.80
2018-11-04T21:02:45.754Z,11.60
2018-11-04T21:05:22.198Z,12.70
2018-11-04T21:11:03.925Z,16.73
2018-11-04T21:13:50.376Z,13.87
2018-11-04T21:16:35.860Z,11.03
2018-11-04T21:19:18.314Z,10.93
2018-11-04T21:21:56.813Z,12.40
2018-11-04T22:04:52.532Z,11.10
2018-11-04T22:07:26.635Z,13.30
2018-11-04T22:09:59.595Z,12.70
2018-11-04T22:12:32.703Z,10.73
2018-11-04T22:15:06.055Z,13.85
2018-11-04T22:17:39.326Z,12.90
2018-11-04T22:27:46.258Z,11.80
2018-11-04T22:30:21.114Z,10.40
2018-11-04T22:35:25.286Z,10.65
2018-11-04T22:55:37.215Z,13.90
2018-11-04T23:08:19.479Z,16.30
2018-11-04T23:10:52.212Z,17.13
2018-11-04T23:13:24.916Z,15.60
2018-11-04T23:15:58.044Z,16.30
2018-11-04T23:18:31.400Z,14.70
2018-11-04T23:21:04.476Z,14.83
2018-11-04T23:23:37.600Z,15.17
2018-11-04T23:33:44.612Z,17.23
2018-11-04T23:36:17.051Z,18.27
2018-11-04T23:38:49.861Z,16.33
2018-11-04T23:41:22.945Z,16.37
2018-11-04T23:43:56.134Z,15.47
2018-11-04T23:46:29.343Z,14.70
2018-11-04T23:49:04.812Z,14.85
2018-11-04T23:51:37.864Z,14.53
2018-11-04T23:54:12.126Z,14.90
2018-11-04T23:56:44.862Z,13.70
2018-11-04T23:59:17.726Z,14.00
